Time;durP1;ratioP1;P1;durP2;ratioP2;P2;SDS_P1;SDS_P2;PMS_P1;PMS_P2;Temp;Humidity;BMP_temperature;BMP_pressure;BME280_temperature;BME280_humidity;BME280_pressure;Samples;Min_cycle;Max_cycle;Signal;HPM_P1;HPM_P2
2023/10/03 06:26:34;;;;;;;;;;;25.00;57.50;;;;;;2518453;19;50716;-65
2023/10/03 06:27:34;;;;;;;;;;;23.40;52.70;;;;;;3049310;19;5381;-84
2023/10/03 06:28:35;;;;;;;;;;;23.40;52.10;;;;;;3046640;19;5998;-66
2023/10/03 06:29:51;;;;;;;;;;;;;;;;;;;;;
2023/10/03 06:31:12;;;;;;;;;;;23.40;52.10;;;;;;3020082;19;4702;-78
2023/10/03 06:32:17;;;;;;;;;;;23.40;52.00;;;;;;3017129;19;4415;-71
2023/10/03 06:33:23;;;;;;;;;;;23.40;52.10;;;;;;3025772;19;5946;-74
2023/10/03 06:34:32;;;;;;;;;;;22.70;51.50;;;;;;3011620;19;4610;-81
2023/10/03 06:35:46;;;;;;;;;;;23.30;51.90;;;;;;3026245;19;4779;-74
2023/10/03 06:37:00;;;;;;;;;;;23.30;52.20;;;;;;3004228;19;4790;-72
2023/10/03 06:38:14;;;;;;;;;;;23.30;51.90;;;;;;3026395;19;4797;-72
2023/10/03 06:39:29;;;;;;;;;;;23.30;51.90;;;;;;2996349;19;5988;-72
2023/10/03 06:40:41;;;;;;;;;;;23.30;52.60;;;;;;3031620;19;4669;-73
2023/10/03 06:41:49;;;;;;;;;;;23.30;52.00;;;;;;3033694;19;4712;-71
2023/10/03 06:42:57;;;;;;;;;;;22.90;51.30;;;;;;3008399;19;4772;-72
2023/10/03 06:44:17;;;;;;;;;;;23.30;51.60;;;;;;3029963;19;4707;-71
2023/10/03 06:45:40;;;;;;;;;;;23.30;51.70;;;;;;2994528;19;5204;-70
2023/10/03 06:46:49;;;;;;;;;;;23.40;51.50;;;;;;3030060;19;5327;-71
2023/10/03 06:48:03;;;;;;;;;;;23.40;52.00;;;;;;3010719;19;4717;-73
2023/10/03 06:49:40;;;;;;;;;;;22.00;51.10;;;;;;3030138;19;4798;-73
2023/10/03 06:50:53;;;;;;;;;;;23.40;51.60;;;;;;2905258;19;2004110;-71
2023/10/03 06:52:03;;;;;;;;;;;23.40;51.50;;;;;;3030601;19;4694;-77
2023/10/03 06:53:13;;;;;;;;;;;23.40;51.80;;;;;;3013323;19;4679;-72
2023/10/03 06:54:22;;;;;;;;;;;23.40;51.70;;;;;;3008432;19;4738;-73
2023/10/03 06:55:35;;;;;;;;;;;23.30;51.80;;;;;;3008601;19;4666;-71
2023/10/03 06:56:48;;;;;;;;;;;23.30;51.90;;;;;;3050550;19;5141;-72
2023/10/03 06:57:58;;;;;;;;;;;23.30;51.90;;;;;;3008066;19;5233;-71
2023/10/03 06:59:21;;;;;;;;;;;23.30;52.20;;;;;;3025891;19;4797;-72
2023/10/03 07:00:35;;;;;;;;;;;23.30;51.80;;;;;;3001494;19;5121;-72
2023/10/03 07:01:40;;;;;;;;;;;23.30;51.80;;;;;;3036380;19;5242;-71
2023/10/03 07:02:49;;;;;;;;;;;23.30;52.00;;;;;;3049037;19;4653;-71
2023/10/03 07:04:09;;;;;;;;;;;23.30;52.00;;;;;;3006913;19;5152;-72
2023/10/03 07:05:22;;;;;;;;;;;23.30;51.90;;;;;;3044740;19;4862;-72
2023/10/03 07:06:28;;;;;;;;;;;23.20;52.00;;;;;;2986171;19;4588;-70
2023/10/03 07:07:50;;;;;;;;;;;23.20;52.00;;;;;;3030195;19;4787;-71
2023/10/03 07:08:53;;;;;;;;;;;23.20;52.10;;;;;;3022881;19;4630;-72
2023/10/03 07:10:01;;;;;;;;;;;23.20;51.90;;;;;;3028482;19;4743;-75
2023/10/03 07:11:12;;;;;;;;;;;23.20;52.00;;;;;;3027845;19;4726;-72
2023/10/03 07:12:22;;;;;;;;;;;23.20;53.10;;;;;;3013749;19;5188;-75
2023/10/03 07:13:49;;;;;;;;;;;23.30;52.90;;;;;;3013409;19;4747;-73
2023/10/03 07:15:01;;;;;;;;;;;23.40;52.70;;;;;;3027239;19;5194;-73
2023/10/03 07:16:09;;;;;;;;;;;23.40;52.30;;;;;;3043984;19;5231;-70
2023/10/03 07:17:15;;;;;;;;;;;23.40;52.70;;;;;;3021550;19;4914;-72
2023/10/03 07:18:22;;;;;;;;;;;23.50;52.70;;;;;;3046941;19;4723;-72
2023/10/03 07:19:46;;;;;;;;;;;23.50;52.80;;;;;;3016130;19;4735;-72
2023/10/03 07:20:59;;;;;;;;;;;23.40;52.60;;;;;;3029395;19;5647;-71
2023/10/03 07:22:12;;;;;;;;;;;23.40;52.80;;;;;;3042883;19;4818;-70
2023/10/03 07:23:25;;;;;;;;;;;23.40;52.70;;;;;;3048833;19;5129;-71
2023/10/03 07:24:30;;;;;;;;;;;23.40;52.60;;;;;;3044931;19;5216;-75
2023/10/03 07:25:34;;;;;;;;;;;23.40;52.70;;;;;;3028657;19;4677;-72
2023/10/03 07:26:38;;;;;;;;;;;23.40;52.60;;;;;;3027787;19;5252;-71
2023/10/03 07:28:16;;;;;;;;;;;23.40;52.90;;;;;;3047594;19;5367;-72
2023/10/03 07:29:21;;;;;;;;;;;23.40;52.60;;;;;;3014425;19;5115;-73
2023/10/03 07:30:31;;;;;;;;;;;23.40;52.80;;;;;;3040056;19;4077;-71
2023/10/03 07:31:47;;;;;;;;;;;23.40;52.50;;;;;;2926782;19;2004208;-72
2023/10/03 07:33:07;;;;;;;;;;;23.40;52.50;;;;;;3015469;19;4780;-72
2023/10/03 07:34:17;;;;;;;;;;;23.30;52.30;;;;;;3029153;19;4645;-74
2023/10/03 07:35:31;;;;;;;;;;;23.40;52.30;;;;;;3005482;19;4880;-70
2023/10/03 07:36:45;;;;;;;;;;;23.40;53.00;;;;;;3030108;19;4705;-71
2023/10/03 07:38:01;;;;;;;;;;;23.30;52.80;;;;;;3024539;19;5619;-70
2023/10/03 07:39:12;;;;;;;;;;;23.30;52.50;;;;;;3028627;19;4841;-71
2023/10/03 07:40:24;;;;;;;;;;;23.30;52.40;;;;;;3039444;19;4365;-72
2023/10/03 07:41:34;;;;;;;;;;;23.30;53.00;;;;;;3007336;19;5221;-73
2023/10/03 07:42:42;;;;;;;;;;;23.30;52.70;;;;;;3048542;19;5574;-73
2023/10/03 07:44:10;;;;;;;;;;;23.30;52.80;;;;;;3007381;19;5348;-73
2023/10/03 07:45:17;;;;;;;;;;;23.30;52.70;;;;;;3029941;19;5174;-73
2023/10/03 07:46:23;;;;;;;;;;;23.40;52.60;;;;;;3028035;19;5318;-66
2023/10/03 07:47:41;;;;;;;;;;;23.30;52.80;;;;;;3028421;19;4664;-69
2023/10/03 07:48:48;;;;;;;;;;;23.30;52.50;;;;;;3025468;19;4905;-66
2023/10/03 07:50:07;;;;;;;;;;;23.30;52.50;;;;;;3049863;19;5500;-67
2023/10/03 07:51:31;;;;;;;;;;;23.30;52.50;;;;;;2996793;19;4703;-65
2023/10/03 07:52:40;;;;;;;;;;;23.30;53.00;;;;;;2929546;19;2004645;-65
2023/10/03 07:54:06;;;;;;;;;;;23.30;52.50;;;;;;3027539;19;4822;-66
2023/10/03 07:55:34;;;;;;;;;;;23.30;53.00;;;;;;3028221;19;5155;-65
2023/10/03 07:57:03;;;;;;;;;;;;;;;;;;;;;
2023/10/03 07:58:34;;;;;;;;;;;23.30;52.90;;;;;;3032520;19;4775;-69
2023/10/03 07:59:43;;;;;;;;;;;23.30;53.00;;;;;;2984499;19;5713;-69
2023/10/03 08:00:55;;;;;;;;;;;23.30;53.10;;;;;;3032885;19;4769;-76
2023/10/03 08:02:10;;;;;;;;;;;23.30;52.90;;;;;;3015866;19;4663;-69
2023/10/03 08:03:21;;;;;;;;;;;23.30;53.00;;;;;;3025863;19;4679;-70
2023/10/03 08:04:42;;;;;;;;;;;23.30;53.00;;;;;;3006681;19;5878;-70
2023/10/03 08:06:10;;;;;;;;;;;23.30;53.00;;;;;;3037267;19;4804;-69
2023/10/03 08:07:22;;;;;;;;;;;23.30;53.00;;;;;;3015636;19;4939;-71
2023/10/03 08:08:30;;;;;;;;;;;23.30;53.20;;;;;;3020529;19;4785;-70
2023/10/03 08:09:35;;;;;;;;;;;23.30;53.10;;;;;;3033917;19;4773;-70
2023/10/03 08:10:52;;;;;;;;;;;23.30;53.00;;;;;;3005719;19;4767;-71
2023/10/03 08:12:11;;;;;;;;;;;23.30;53.00;;;;;;3030339;19;4711;-70
2023/10/03 08:13:25;;;;;;;;;;;23.30;53.00;;;;;;2993070;19;4583;-72
2023/10/03 08:14:41;;;;;;;;;;;23.30;53.00;;;;;;3047863;19;4783;-72
2023/10/03 08:15:49;;;;;;;;;;;23.20;53.30;;;;;;3045466;19;4542;-70
2023/10/03 08:16:59;;;;;;;;;;;23.20;53.00;;;;;;3034489;19;4857;-69
2023/10/03 08:18:17;;;;;;;;;;;23.30;53.30;;;;;;3047378;19;4798;-69
2023/10/03 08:19:33;;;;;;;;;;;23.30;53.30;;;;;;3028335;19;5139;-73
2023/10/03 08:20:39;;;;;;;;;;;23.20;53.40;;;;;;3018275;19;4714;-67
2023/10/03 08:21:49;;;;;;;;;;;23.20;53.40;;;;;;3036060;19;4830;-69
2023/10/03 08:23:05;;;;;;;;;;;23.20;53.50;;;;;;3035589;19;4783;-70
2023/10/03 08:24:19;;;;;;;;;;;23.30;53.50;;;;;;3004529;19;4816;-69
2023/10/03 08:25:41;;;;;;;;;;;23.20;53.40;;;;;;3028335;19;4359;-71
2023/10/03 08:26:51;;;;;;;;;;;23.30;53.60;;;;;;2903181;19;2004174;-72
2023/10/03 08:27:58;;;;;;;;;;;23.20;53.50;;;;;;3029201;19;4807;-69
2023/10/03 08:29:21;;;;;;;;;;;23.20;53.60;;;;;;3018304;19;4718;-68
2023/10/03 08:30:43;;;;;;;;;;;23.20;53.60;;;;;;3019072;19;4725;-69
2023/10/03 08:32:11;;;;;;;;;;;23.20;53.70;;;;;;3018323;19;4691;-70
2023/10/03 08:33:36;;;;;;;;;;;;;;;;;;;;;
2023/10/03 08:34:48;;;;;;;;;;;23.20;53.90;;;;;;3006774;19;5150;-70
2023/10/03 08:36:23;;;;;;;;;;;23.20;53.90;;;;;;3034619;19;4810;-69
2023/10/03 08:37:36;;;;;;;;;;;23.20;53.90;;;;;;3000987;19;4693;-70
2023/10/03 08:38:44;;;;;;;;;;;23.20;54.10;;;;;;3030382;19;4780;-71
2023/10/03 08:40:22;;;;;;;;;;;23.20;54.20;;;;;;3025322;19;4631;-73
2023/10/03 08:41:45;;;;;;;;;;;23.20;54.10;;;;;;2932538;19;2004383;-70
2023/10/03 08:43:02;;;;;;;;;;;23.20;54.10;;;;;;3007447;19;4701;-70
2023/10/03 08:44:20;;;;;;;;;;;23.20;54.20;;;;;;3029670;19;4802;-69
2023/10/03 08:45:30;;;;;;;;;;;23.20;54.30;;;;;;3006357;19;4935;-70
2023/10/03 08:46:41;;;;;;;;;;;23.00;54.20;;;;;;3043968;19;4750;-69
2023/10/03 08:47:54;;;;;;;;;;;23.20;54.50;;;;;;3014777;19;4585;-71
2023/10/03 08:49:10;;;;;;;;;;;23.20;54.40;;;;;;3034720;19;4841;-69
2023/10/03 08:50:35;;;;;;;;;;;23.20;54.50;;;;;;3036005;19;4839;-69
2023/10/03 08:51:51;;;;;;;;;;;23.20;54.70;;;;;;3029471;19;4787;-71
2023/10/03 08:53:12;;;;;;;;;;;23.20;54.60;;;;;;3034809;19;4864;-71
2023/10/03 08:54:22;;;;;;;;;;;23.20;54.70;;;;;;3048818;19;4761;-69
2023/10/03 08:55:38;;;;;;;;;;;23.20;54.80;;;;;;3007951;19;4338;-69
2023/10/03 08:56:59;;;;;;;;;;;23.20;54.70;;;;;;2929908;19;2005809;-67
2023/10/03 08:58:08;;;;;;;;;;;24.10;55.20;;;;;;3007756;19;4715;-67
2023/10/03 08:59:21;;;;;;;;;;;23.20;54.60;;;;;;3028315;19;4801;-68
2023/10/03 09:00:47;;;;;;;;;;;23.20;54.90;;;;;;2926166;19;2004387;-67
2023/10/03 09:02:00;;;;;;;;;;;23.20;54.70;;;;;;3014813;19;4605;-68
2023/10/03 09:03:24;;;;;;;;;;;23.10;54.80;;;;;;3036148;19;4668;-68
2023/10/03 09:04:42;;;;;;;;;;;23.20;54.90;;;;;;3019548;19;4750;-68
2023/10/03 09:06:08;;;;;;;;;;;23.20;55.10;;;;;;3023558;19;5212;-68
2023/10/03 09:07:26;;;;;;;;;;;;;;;;;;;;;
2023/10/03 09:10:29;;;;;;;;;;;23.20;55.20;;;;;;3044418;19;4850;-72
2023/10/03 09:11:39;;;;;;;;;;;23.20;55.50;;;;;;2925290;19;2004644;-73
2023/10/03 09:12:47;;;;;;;;;;;23.20;55.30;;;;;;3035292;19;5324;-74
2023/10/03 09:13:59;;;;;;;;;;;23.20;55.40;;;;;;2997079;19;4709;-71
2023/10/03 09:15:15;;;;;;;;;;;23.10;55.40;;;;;;3038824;19;4678;-73
2023/10/03 09:16:26;;;;;;;;;;;23.20;55.50;;;;;;3041711;19;4378;-71
2023/10/03 09:17:41;;;;;;;;;;;23.20;55.50;;;;;;3016480;19;4619;-75
2023/10/03 09:19:09;;;;;;;;;;;23.20;56.20;;;;;;3034533;19;4770;-72
2023/10/03 09:20:31;;;;;;;;;;;23.20;55.60;;;;;;3013579;19;4625;-72
2023/10/03 09:21:35;;;;;;;;;;;23.20;56.20;;;;;;2929087;19;2004339;-72
2023/10/03 09:22:49;;;;;;;;;;;23.30;56.10;;;;;;3006806;19;4676;-70
2023/10/03 09:24:27;;;;;;;;;;;23.40;56.20;;;;;;3029862;19;4642;-71
2023/10/03 09:25:55;;;;;;;;;;;23.30;55.80;;;;;;2905574;19;2004308;-72
2023/10/03 09:27:18;;;;;;;;;;;25.00;57.10;;;;;;3029739;19;4741;-72
2023/10/03 09:28:35;;;;;;;;;;;23.50;56.20;;;;;;3028379;19;4683;-74
2023/10/03 09:29:39;;;;;;;;;;;23.70;56.20;;;;;;3053730;19;4812;-74
2023/10/03 09:31:13;;;;;;;;;;;23.60;56.20;;;;;;3034109;19;4760;-72
2023/10/03 09:32:24;;;;;;;;;;;23.60;56.00;;;;;;3011019;19;4695;-74
2023/10/03 09:33:28;;;;;;;;;;;23.60;56.00;;;;;;3008953;19;4629;-73
2023/10/03 09:34:41;;;;;;;;;;;23.60;56.10;;;;;;3029373;19;4840;-72
2023/10/03 09:36:07;;;;;;;;;;;23.60;56.10;;;;;;3014587;19;4558;-73
2023/10/03 09:37:28;;;;;;;;;;;23.60;56.30;;;;;;3038262;19;4708;-74
2023/10/03 09:38:52;;;;;;;;;;;23.60;56.20;;;;;;2922914;19;2004359;-73
2023/10/03 09:40:19;;;;;;;;;;;23.60;57.00;;;;;;3033832;19;4857;-72
2023/10/03 09:41:38;;;;;;;;;;;23.60;56.60;;;;;;2994370;19;4720;-72
2023/10/03 09:42:53;;;;;;;;;;;23.60;56.50;;;;;;3036842;19;4675;-74
2023/10/03 09:44:01;;;;;;;;;;;23.60;56.50;;;;;;3008392;19;5364;-76
2023/10/03 09:45:10;;;;;;;;;;;23.60;56.50;;;;;;3048788;19;1151;-72
2023/10/03 09:46:23;;;;;;;;;;;23.60;56.70;;;;;;3005305;19;4607;-75
2023/10/03 09:47:35;;;;;;;;;;;23.60;57.00;;;;;;3032821;19;4655;-73
2023/10/03 09:48:53;;;;;;;;;;;23.60;56.70;;;;;;3014836;19;4779;-72
2023/10/03 09:50:03;;;;;;;;;;;23.60;56.70;;;;;;3028074;19;4602;-73
2023/10/03 09:51:18;;;;;;;;;;;23.20;57.30;;;;;;3019565;19;4791;-73
2023/10/03 09:52:32;;;;;;;;;;;23.50;57.20;;;;;;3021032;19;4734;-73
2023/10/03 09:54:00;;;;;;;;;;;23.60;57.20;;;;;;3031916;19;4732;-71
2023/10/03 09:55:26;;;;;;;;;;;23.50;57.10;;;;;;3010227;19;4748;-75
2023/10/03 09:56:50;;;;;;;;;;;22.60;56.50;;;;;;2993324;19;4756;-72
2023/10/03 09:58:05;;;;;;;;;;;23.60;57.30;;;;;;3030724;19;4783;-72
2023/10/03 09:59:28;;;;;;;;;;;23.70;57.20;;;;;;3009736;19;4747;-72
2023/10/03 10:00:54;;;;;;;;;;;23.70;57.10;;;;;;2931574;19;2004325;-72
2023/10/03 10:02:12;;;;;;;;;;;23.80;56.90;;;;;;3013143;19;4765;-72
2023/10/03 10:03:37;;;;;;;;;;;23.80;57.30;;;;;;3007342;19;4822;-73
2023/10/03 10:04:44;;;;;;;;;;;23.80;57.40;;;;;;3006804;19;4941;-71
2023/10/03 10:06:01;;;;;;;;;;;23.80;57.10;;;;;;3033270;19;4795;-71
2023/10/03 10:07:34;;;;;;;;;;;23.80;57.10;;;;;;3030752;19;4779;-72
2023/10/03 10:09:13;;;;;;;;;;;23.90;57.40;;;;;;2928817;19;2004109;-74
2023/10/03 10:10:22;;;;;;;;;;;23.90;57.40;;;;;;2990147;19;4786;-71
2023/10/03 10:11:30;;;;;;;;;;;23.80;57.30;;;;;;3031411;19;4894;-75
2023/10/03 10:13:00;;;;;;;;;;;23.80;57.40;;;;;;3005313;19;4621;-72
2023/10/03 10:14:20;;;;;;;;;;;23.80;57.60;;;;;;3027817;19;4784;-72
2023/10/03 10:15:30;;;;;;;;;;;23.80;57.50;;;;;;3010973;19;4511;-77
2023/10/03 10:16:50;;;;;;;;;;;23.80;57.20;;;;;;3028544;19;4751;-74
2023/10/03 10:18:10;;;;;;;;;;;23.80;57.60;;;;;;3004092;19;4726;-73
2023/10/03 10:19:19;;;;;;;;;;;23.80;57.90;;;;;;3025982;19;4702;-73
2023/10/03 10:20:37;;;;;;;;;;;22.40;57.00;;;;;;3030452;19;4800;-74
2023/10/03 10:22:12;;;;;;;;;;;22.40;56.50;;;;;;3007006;19;4635;-72
2023/10/03 10:23:27;;;;;;;;;;;25.30;58.30;;;;;;3014878;19;4741;-73
2023/10/03 10:24:40;;;;;;;;;;;23.80;57.30;;;;;;3022349;19;4758;-73
2023/10/03 10:26:07;;;;;;;;;;;23.80;57.30;;;;;;3029563;19;5240;-73
2023/10/03 10:27:48;;;;;;;;;;;23.80;57.30;;;;;;3010269;19;4673;-77
2023/10/03 10:31:29;;;;;;;;;;;;;;;;;;;;;
2023/10/03 10:33:07;;;;;;;;;;;23.80;57.70;;;;;;3024567;19;21009;-75
2023/10/03 10:34:49;;;;;;;;;;;23.70;57.40;;;;;;3010929;19;4759;-76
2023/10/03 10:36:43;;;;;;;;;;;23.90;57.40;;;;;;2927875;19;2004304;-66
2023/10/03 10:38:16;;;;;;;;;;;23.80;57.40;;;;;;2925993;19;2003635;-77
2023/10/03 10:39:25;;;;;;;;;;;23.80;57.40;;;;;;2985912;19;4588;-77
2023/10/03 10:40:46;;;;;;;;;;;23.80;57.60;;;;;;3052484;19;1394;-77
2023/10/03 10:42:24;;;;;;;;;;;23.60;57.40;;;;;;2904881;19;2004326;-78
2023/10/03 10:44:01;;;;;;;;;;;23.90;57.50;;;;;;2926342;19;2004327;-77
2023/10/03 10:45:37;;;;;;;;;;;23.90;57.60;;;;;;3003526;19;4874;-77
2023/10/03 10:49:36;;;;;;;;;;;;;;;;;;;;;
2023/10/03 10:51:43;;;;;;;;;;;23.80;57.70;;;;;;2919831;19;2020588;-77
2023/10/03 10:53:17;;;;;;;;;;;23.80;57.90;;;;;;2905344;19;2004362;-81
2023/10/03 10:54:31;;;;;;;;;;;23.90;57.90;;;;;;3023802;19;5814;-82
2023/10/03 10:57:48;;;;;;;;;;;22.40;56.70;;;;;;3028868;19;4792;-82
2023/10/03 10:59:17;;;;;;;;;;;22.80;57.00;;;;;;2908435;19;2004327;-81
2023/10/03 11:00:57;;;;;;;;;;;24.00;57.70;;;;;;3031347;19;4554;-80
2023/10/03 11:02:27;;;;;;;;;;;24.70;58.20;;;;;;2905509;19;2004346;-82
2023/10/03 11:03:47;;;;;;;;;;;23.90;57.80;;;;;;2904763;19;2004347;-85
2023/10/03 11:05:24;;;;;;;;;;;23.90;57.80;;;;;;3034999;19;5259;-83
2023/10/03 11:06:36;;;;;;;;;;;23.90;57.80;;;;;;3032930;19;4666;-81
2023/10/03 11:07:58;;;;;;;;;;;23.90;58.20;;;;;;3031015;19;4630;-81
2023/10/03 11:09:14;;;;;;;;;;;23.90;57.80;;;;;;3007363;19;4860;-83
2023/10/03 11:10:33;;;;;;;;;;;;;;;;;;;;;
2023/10/03 11:11:39;;;;;;;;;;;23.90;58.00;;;;;;3030107;19;4211;-80
2023/10/03 11:13:04;;;;;;;;;;;23.90;57.80;;;;;;3039595;19;5674;-80
2023/10/03 11:14:10;;;;;;;;;;;24.20;57.90;;;;;;3017232;19;4744;-83
2023/10/03 11:15:35;;;;;;;;;;;23.90;57.90;;;;;;3031337;19;4741;-82
2023/10/03 11:16:45;;;;;;;;;;;23.90;57.60;;;;;;2916870;19;2004331;-81
2023/10/03 11:17:58;;;;;;;;;;;23.90;58.10;;;;;;3040005;19;5329;-83
2023/10/03 11:19:06;;;;;;;;;;;24.50;58.10;;;;;;3051531;19;4658;-85
2023/10/03 11:20:26;;;;;;;;;;;23.90;58.00;;;;;;3051359;19;4564;-81
2023/10/03 11:21:33;;;;;;;;;;;23.90;57.80;;;;;;2929322;19;2005655;-81
2023/10/03 11:22:47;;;;;;;;;;;24.00;58.60;;;;;;3027884;19;5187;-81
2023/10/03 11:24:18;;;;;;;;;;;23.90;57.80;;;;;;3030107;19;5055;-80
2023/10/03 11:25:31;;;;;;;;;;;24.00;57.70;;;;;;3006897;19;4684;-80
2023/10/03 11:27:06;;;;;;;;;;;25.70;58.90;;;;;;3030587;19;4712;-81
2023/10/03 11:28:17;;;;;;;;;;;23.90;57.70;;;;;;3024127;19;4805;-86
2023/10/03 11:29:38;;;;;;;;;;;23.90;57.80;;;;;;3036207;19;4669;-83
2023/10/03 11:30:49;;;;;;;;;;;24.00;57.80;;;;;;3012453;19;4763;-82
2023/10/03 11:31:56;;;;;;;;;;;23.40;57.40;;;;;;3036306;19;4785;-80
2023/10/03 11:33:09;;;;;;;;;;;23.90;57.80;;;;;;3011530;19;4891;-83
2023/10/03 11:34:31;;;;;;;;;;;23.90;57.70;;;;;;3041834;19;4873;-81
2023/10/03 11:35:41;;;;;;;;;;;23.90;57.70;;;;;;2910417;19;2004701;-86
2023/10/03 11:36:51;;;;;;;;;;;23.90;57.90;;;;;;3053542;19;4682;-71
2023/10/03 11:37:56;;;;;;;;;;;23.80;58.20;;;;;;3011080;19;4820;-71
2023/10/03 11:39:07;;;;;;;;;;;23.90;57.50;;;;;;3051330;19;4793;-71
2023/10/03 11:40:32;;;;;;;;;;;23.90;57.70;;;;;;3031255;19;5235;-71
2023/10/03 11:41:38;;;;;;;;;;;23.90;57.70;;;;;;2942087;19;2004515;-71
2023/10/03 11:43:08;;;;;;;;;;;23.90;58.00;;;;;;3043489;19;4932;-72
2023/10/03 11:44:29;;;;;;;;;;;23.90;58.30;;;;;;3009321;19;5265;-72
2023/10/03 11:45:39;;;;;;;;;;;23.90;58.00;;;;;;2928743;19;2004439;-71
2023/10/03 11:46:48;;;;;;;;;;;23.80;58.00;;;;;;3010576;19;4723;-74
2023/10/03 11:48:03;;;;;;;;;;;23.80;58.00;;;;;;3033072;19;4702;-72
2023/10/03 11:49:46;;;;;;;;;;;23.90;58.00;;;;;;3053042;19;4845;-73
2023/10/03 11:51:22;;;;;;;;;;;24.10;58.00;;;;;;2951773;19;2004461;-73
2023/10/03 11:52:54;;;;;;;;;;;;;;;;;;;;;
2023/10/03 11:54:08;;;;;;;;;;;23.90;58.00;;;;;;2990951;19;4633;-74
2023/10/03 11:55:20;;;;;;;;;;;23.80;58.00;;;;;;3032893;19;4675;-73
2023/10/03 11:56:46;;;;;;;;;;;23.80;58.00;;;;;;3023507;19;4596;-73
2023/10/03 11:58:12;;;;;;;;;;;23.80;58.00;;;;;;3012935;19;4607;-73
2023/10/03 11:59:36;;;;;;;;;;;23.80;57.90;;;;;;3012386;19;4774;-72
2023/10/03 12:00:46;;;;;;;;;;;24.80;58.40;;;;;;2932704;19;2004376;-77
2023/10/03 12:03:34;;;;;;;;;;;23.90;58.00;;;;;;2935601;19;2004411;-73
2023/10/03 12:04:41;;;;;;;;;;;23.80;58.10;;;;;;3018291;19;4665;-73
2023/10/03 12:05:57;;;;;;;;;;;24.30;59.00;;;;;;3042255;19;4676;-73
2023/10/03 12:07:00;;;;;;;;;;;23.80;57.90;;;;;;3052066;19;4752;-72
2023/10/03 12:08:09;;;;;;;;;;;23.80;58.40;;;;;;3062174;19;4560;-76
2023/10/03 12:09:24;;;;;;;;;;;23.90;58.00;;;;;;3047330;19;4731;-74
2023/10/03 12:10:36;;;;;;;;;;;23.90;58.00;;;;;;3005407;19;4718;-74
2023/10/03 12:12:09;;;;;;;;;;;24.00;58.20;;;;;;3050248;19;4674;-74
2023/10/03 12:13:20;;;;;;;;;;;23.00;57.60;;;;;;3064844;19;4474;-74
2023/10/03 12:14:29;;;;;;;;;;;24.10;58.60;;;;;;3035487;19;4623;-73
2023/10/03 12:16:26;;;;;;;;;;;23.80;58.10;;;;;;3028989;19;4652;-74
2023/10/03 12:17:47;;;;;;;;;;;23.40;57.90;;;;;;2947526;19;2004371;-74
2023/10/03 12:19:08;;;;;;;;;;;23.80;58.00;;;;;;3035674;19;5107;-74
2023/10/03 12:20:31;;;;;;;;;;;23.80;58.50;;;;;;3051711;19;4539;-74
2023/10/03 12:21:49;;;;;;;;;;;23.80;58.70;;;;;;2969324;19;2004322;-72
2023/10/03 12:23:44;;;;;;;;;;;23.10;57.90;;;;;;3051438;19;5218;-73
2023/10/03 12:24:55;;;;;;;;;;;22.80;57.80;;;;;;2945061;19;2003585;-75
2023/10/03 12:26:13;;;;;;;;;;;23.80;58.60;;;;;;3050909;19;4763;-75
2023/10/03 12:27:41;;;;;;;;;;;23.80;58.40;;;;;;3047234;19;4769;-72
2023/10/03 12:29:17;;;;;;;;;;;;;;;;;;;;;
2023/10/03 12:30:52;;;;;;;;;;;23.80;58.70;;;;;;3036459;19;5179;-73
2023/10/03 12:32:38;;;;;;;;;;;;;;;;;;;;;
2023/10/03 12:34:04;;;;;;;;;;;23.70;58.80;;;;;;2939470;19;2020458;-71
2023/10/03 12:35:09;;;;;;;;;;;23.70;59.00;;;;;;3020409;19;4769;-73
2023/10/03 12:36:16;;;;;;;;;;;23.80;58.90;;;;;;3060549;19;5933;-72
2023/10/03 12:37:35;;;;;;;;;;;23.80;59.00;;;;;;3002294;19;5229;-72
2023/10/03 12:38:41;;;;;;;;;;;23.70;58.90;;;;;;3036842;19;4870;-73
2023/10/03 12:40:13;;;;;;;;;;;23.70;59.30;;;;;;3012942;19;4798;-71
2023/10/03 12:41:20;;;;;;;;;;;23.70;59.00;;;;;;3034637;19;4841;-72
2023/10/03 12:42:44;;;;;;;;;;;25.00;59.70;;;;;;3015066;19;4768;-73
2023/10/03 12:43:47;;;;;;;;;;;23.70;59.10;;;;;;3035212;19;4861;-73
2023/10/03 12:44:50;;;;;;;;;;;23.70;59.70;;;;;;3035895;19;4971;-72
2023/10/03 12:46:02;;;;;;;;;;;23.70;59.30;;;;;;3035197;19;4733;-72
2023/10/03 12:47:08;;;;;;;;;;;23.70;59.30;;;;;;3025048;19;5187;-63
2023/10/03 12:48:28;;;;;;;;;;;23.80;59.10;;;;;;3028590;19;4439;-64
2023/10/03 12:49:36;;;;;;;;;;;23.70;59.00;;;;;;3005606;19;5167;-64
2023/10/03 12:50:45;;;;;;;;;;;23.70;59.30;;;;;;3009359;19;4754;-64
2023/10/03 12:51:54;;;;;;;;;;;23.70;59.30;;;;;;3048577;19;4847;-64
2023/10/03 12:53:15;;;;;;;;;;;23.70;59.30;;;;;;3007478;19;4669;-65
2023/10/03 12:54:38;;;;;;;;;;;23.70;59.40;;;;;;3043904;19;4470;-65
2023/10/03 12:55:51;;;;;;;;;;;23.70;59.50;;;;;;2912480;19;2004267;-68
2023/10/03 12:57:03;;;;;;;;;;;23.70;59.60;;;;;;3034920;19;4795;-75
2023/10/03 12:58:24;;;;;;;;;;;23.70;59.30;;;;;;3010017;19;4800;-78
2023/10/03 12:59:32;;;;;;;;;;;23.70;59.50;;;;;;2929641;19;2004328;-77
2023/10/03 13:00:42;;;;;;;;;;;23.70;59.30;;;;;;3009637;19;4780;-75
2023/10/03 13:02:14;;;;;;;;;;;23.70;59.70;;;;;;3031422;19;4798;-76
2023/10/03 13:03:33;;;;;;;;;;;23.60;59.40;;;;;;2988189;19;4673;-75
2023/10/03 13:04:50;;;;;;;;;;;23.70;59.60;;;;;;3031956;19;4680;-75
2023/10/03 13:05:59;;;;;;;;;;;22.30;58.80;;;;;;3008142;19;4712;-74
2023/10/03 13:07:12;;;;;;;;;;;23.70;59.80;;;;;;3030525;19;4771;-75
2023/10/03 13:08:20;;;;;;;;;;;24.10;60.30;;;;;;3026493;19;4719;-75
2023/10/03 13:09:27;;;;;;;;;;;23.70;60.10;;;;;;3007917;19;4801;-75
2023/10/03 13:10:41;;;;;;;;;;;23.70;59.80;;;;;;3038111;19;4791;-76
2023/10/03 13:11:54;;;;;;;;;;;23.70;59.90;;;;;;3016004;19;4890;-76
2023/10/03 13:13:12;;;;;;;;;;;23.00;59.80;;;;;;3029911;19;4802;-75
2023/10/03 13:14:19;;;;;;;;;;;23.60;59.80;;;;;;3003864;19;4662;-74
2023/10/03 13:15:26;;;;;;;;;;;23.70;60.00;;;;;;3027470;19;5199;-78
2023/10/03 13:16:57;;;;;;;;;;;23.80;60.20;;;;;;3007807;19;4757;-75
2023/10/03 13:18:15;;;;;;;;;;;23.80;60.00;;;;;;3030322;19;4956;-76
2023/10/03 13:19:30;;;;;;;;;;;24.00;60.30;;;;;;2984021;19;4727;-75
2023/10/03 13:21:01;;;;;;;;;;;23.90;59.90;;;;;;3033258;19;4720;-76
2023/10/03 13:22:27;;;;;;;;;;;24.70;60.20;;;;;;3008579;19;4834;-78
2023/10/03 13:23:35;;;;;;;;;;;24.00;60.10;;;;;;2926231;19;2004416;-76
2023/10/03 13:24:46;;;;;;;;;;;24.00;59.80;;;;;;3005888;19;4661;-75
2023/10/03 13:26:06;;;;;;;;;;;24.00;60.00;;;;;;3029575;19;4675;-77
2023/10/03 13:27:16;;;;;;;;;;;24.00;60.10;;;;;;3005557;19;4789;-77
2023/10/03 13:28:33;;;;;;;;;;;24.00;60.40;;;;;;3011973;19;4694;-75
2023/10/03 13:29:44;;;;;;;;;;;24.00;60.10;;;;;;3030121;19;4618;-75
2023/10/03 13:30:51;;;;;;;;;;;24.00;60.70;;;;;;3008608;19;4647;-77
2023/10/03 13:32:09;;;;;;;;;;;24.00;60.00;;;;;;3029077;19;4932;-76
2023/10/03 13:33:39;;;;;;;;;;;24.00;60.10;;;;;;3007115;19;4745;-76
2023/10/03 13:34:53;;;;;;;;;;;24.00;60.00;;;;;;2926770;19;2004450;-75
2023/10/03 13:35:59;;;;;;;;;;;24.00;60.10;;;;;;3007231;19;4864;-76
2023/10/03 13:37:04;;;;;;;;;;;24.00;60.70;;;;;;3050534;19;5148;-76
2023/10/03 13:38:18;;;;;;;;;;;24.10;61.00;;;;;;3025625;19;4791;-76
2023/10/03 13:39:27;;;;;;;;;;;23.90;60.40;;;;;;3039270;19;4922;-75
2023/10/03 13:40:37;;;;;;;;;;;23.90;60.10;;;;;;2990460;19;4773;-76
2023/10/03 13:43:17;;;;;;;;;;;23.90;60.00;;;;;;3010167;19;4842;-75
2023/10/03 13:44:25;;;;;;;;;;;23.90;60.50;;;;;;3015693;19;5928;-75
2023/10/03 13:45:29;;;;;;;;;;;24.00;61.60;;;;;;3029104;19;5168;-75
2023/10/03 13:46:47;;;;;;;;;;;23.90;60.40;;;;;;3006162;19;4742;-78
2023/10/03 13:47:56;;;;;;;;;;;24.00;60.20;;;;;;3033921;19;4777;-76
2023/10/03 13:49:06;;;;;;;;;;;23.40;60.40;;;;;;3016242;19;4745;-76
2023/10/03 13:50:15;;;;;;;;;;;22.90;59.40;;;;;;3030051;19;5228;-74
2023/10/03 13:51:23;;;;;;;;;;;23.90;60.20;;;;;;3001478;19;4734;-75
2023/10/03 13:52:41;;;;;;;;;;;23.90;60.60;;;;;;3035239;19;4702;-74
2023/10/03 13:53:57;;;;;;;;;;;23.20;59.90;;;;;;3030198;19;4707;-75
2023/10/03 13:55:22;;;;;;;;;;;23.90;60.60;;;;;;3034306;19;4751;-76
2023/10/03 13:56:34;;;;;;;;;;;24.10;60.20;;;;;;3002234;19;4747;-68
2023/10/03 13:57:50;;;;;;;;;;;24.10;60.20;;;;;;3028092;19;4808;-67
2023/10/03 13:59:17;;;;;;;;;;;24.00;59.70;;;;;;3031902;19;4817;-68
2023/10/03 14:00:35;;;;;;;;;;;24.00;59.50;;;;;;3027161;19;5410;-71
2023/10/03 14:01:45;;;;;;;;;;;24.10;59.50;;;;;;3026783;19;5305;-67
2023/10/03 14:03:16;;;;;;;;;;;24.00;58.90;;;;;;3006591;19;4933;-67
2023/10/03 14:04:43;;;;;;;;;;;24.10;58.90;;;;;;3026663;19;4319;-67
2023/10/03 14:06:01;;;;;;;;;;;24.00;58.60;;;;;;2918796;19;2004536;-67
2023/10/03 14:07:07;;;;;;;;;;;24.10;58.40;;;;;;3027226;19;4791;-64
2023/10/03 14:08:28;;;;;;;;;;;;;;;;;;;;;
2023/10/03 14:09:39;;;;;;;;;;;24.10;58.20;;;;;;2923121;19;2020688;-63
2023/10/03 14:11:02;;;;;;;;;;;24.10;58.10;;;;;;3005641;19;4702;-64
2023/10/03 14:12:18;;;;;;;;;;;24.00;58.10;;;;;;3026928;19;5253;-66
2023/10/03 14:13:41;;;;;;;;;;;24.10;58.10;;;;;;2984010;19;4748;-67
2023/10/03 14:15:03;;;;;;;;;;;24.10;58.00;;;;;;3025715;19;4823;-64
2023/10/03 14:16:16;;;;;;;;;;;24.00;58.00;;;;;;3005263;19;4618;-65